Time;durP1;ratioP1;P1;durP2;ratioP2;P2;SDS_P1;SDS_P2;PMS_P1;PMS_P2;Temp;Humidity;BMP_temperature;BMP_pressure;BME280_temperature;BME280_humidity;BME280_pressure;Samples;Min_cycle;Max_cycle;Signal;HPM_P1;HPM_P2
2021/10/19 00:01:10;;;;;;;25.67;20.42;;;;;;;14.70;68.84;101641.16;4984399;28;20068;-80
2021/10/19 00:03:36;;;;;;;24.38;21.67;;;;;;;14.72;68.51;101649.94;4988544;28;20174;-69
2021/10/19 00:06:01;;;;;;;29.13;23.00;;;;;;;14.73;68.57;101645.56;4987039;28;20030;-69
2021/10/19 00:08:26;;;;;;;32.28;23.13;;;;;;;14.48;68.66;101645.44;4987416;28;20042;-70
2021/10/19 00:10:52;;;;;;;34.88;24.83;;;;;;;14.51;68.09;101633.97;4986540;28;20767;-72
2021/10/19 00:13:17;;;;;;;29.10;23.90;;;;;;;14.59;68.45;101628.78;4986139;28;20278;-69
2021/10/19 00:15:43;;;;;;;30.08;22.13;;;;;;;14.72;68.46;101643.78;4986619;28;20417;-72
2021/10/19 00:18:09;;;;;;;30.83;23.52;;;;;;;14.76;68.28;101634.97;4980754;28;20168;-76
2021/10/19 00:20:34;;;;;;;27.88;21.02;;;;;;;14.71;68.59;101637.63;4987297;28;20413;-70
2021/10/19 00:23:00;;;;;;;30.52;22.45;;;;;;;14.77;68.27;101636.72;4986573;28;20534;-70
2021/10/19 00:25:25;;;;;;;29.40;22.17;;;;;;;14.84;68.35;101627.94;4985030;28;20058;-70
2021/10/19 00:27:51;;;;;;;33.53;22.60;;;;;;;14.82;68.09;101631.47;4987562;28;20045;-70
2021/10/19 00:30:17;;;;;;;26.30;21.42;;;;;;;14.73;68.42;101627.06;4985681;28;20543;-69
2021/10/19 00:32:42;;;;;;;36.40;22.60;;;;;;;14.68;68.50;101619.13;4983225;28;20030;-70
2021/10/19 00:35:09;;;;;;;28.70;23.20;;;;;;;14.68;68.40;101624.41;4990696;28;20230;-72
2021/10/19 00:37:34;;;;;;;27.23;22.15;;;;;;;14.76;68.72;101640.25;4990471;28;20034;-71
2021/10/19 00:40:00;;;;;;;28.48;21.95;;;;;;;14.74;68.27;101634.97;4989933;28;20501;-70
2021/10/19 00:42:26;;;;;;;31.73;23.92;;;;;;;14.72;68.57;101630.56;4991655;28;20034;-70
2021/10/19 00:44:52;;;;;;;28.65;21.98;;;;;;;14.73;68.28;101625.28;4988992;28;20038;-72
2021/10/19 00:47:21;;;;;;;28.98;21.65;;;;;;;14.71;68.54;101632.31;4989818;28;20505;-75
2021/10/19 00:49:48;;;;;;;24.42;20.73;;;;;;;14.77;68.50;101639.38;4986475;28;20018;-70
2021/10/19 00:52:14;;;;;;;29.10;24.02;;;;;;;14.81;68.16;101635.88;4990180;28;20038;-70
2021/10/19 00:54:40;;;;;;;26.88;21.35;;;;;;;14.63;68.70;101634.06;4992257;28;20073;-69
2021/10/19 00:57:07;;;;;;;27.85;21.95;;;;;;;14.65;68.58;101640.22;5021542;28;20050;-70
2021/10/19 00:59:36;;;;;;;27.90;22.23;;;;;;;14.59;68.77;101628.78;4989246;28;20470;-70
2021/10/19 01:02:03;;;;;;;33.25;21.85;;;;;;;14.64;68.61;101637.59;4991282;28;20050;-70
2021/10/19 01:04:28;;;;;;;29.08;23.15;;;;;;;14.66;67.90;101639.38;4988788;28;20297;-73
2021/10/19 01:06:53;;;;;;;33.25;23.95;;;;;;;14.41;67.88;101630.44;4989692;28;20508;-72
2021/10/19 01:09:19;;;;;;;32.60;24.10;;;;;;;14.52;67.97;101631.34;4990922;28;20450;-70
2021/10/19 01:11:45;;;;;;;29.88;22.35;;;;;;;14.68;67.96;101623.50;4988973;28;20033;-77
2021/10/19 01:14:10;;;;;;;30.45;24.20;;;;;;;14.71;68.37;101628.81;4989023;28;20443;-80
2021/10/19 01:16:36;;;;;;;32.72;23.13;;;;;;;14.75;68.56;101625.31;4989889;28;20062;-70
2021/10/19 01:19:01;;;;;;;27.25;21.40;;;;;;;14.68;68.32;101624.41;4985773;28;20054;-71
2021/10/19 01:21:27;;;;;;;27.83;20.45;;;;;;;14.64;68.86;101624.38;4986813;28;20498;-74
2021/10/19 01:23:52;;;;;;;31.35;24.27;;;;;;;14.70;68.30;101616.47;4990029;28;20042;-69
2021/10/19 01:26:18;;;;;;;29.58;23.50;;;;;;;14.68;68.63;101627.03;4987400;28;20065;-73
2021/10/19 01:28:43;;;;;;;35.00;23.33;;;;;;;14.60;68.63;101617.31;4986246;28;20042;-70
2021/10/19 01:31:12;;;;;;;30.98;22.25;;;;;;;14.61;67.95;101622.63;4984846;28;20038;-71
2021/10/19 01:33:39;;;;;;;30.77;25.02;;;;;;;14.65;68.31;101628.78;4988786;28;20039;-72
2021/10/19 01:36:06;;;;;;;34.67;25.80;;;;;;;14.73;67.62;101619.13;4988355;28;20084;-70
2021/10/19 01:38:34;;;;;;;34.72;24.83;;;;;;;14.74;67.86;101636.72;4990316;28;20045;-71
2021/10/19 01:41:01;;;;;;;32.92;25.73;;;;;;;14.74;67.45;101639.38;4988042;28;20462;-72
2021/10/19 01:43:28;;;;;;;36.00;25.60;;;;;;;14.74;66.73;101636.72;4987387;28;20034;-70
2021/10/19 01:45:56;;;;;;;32.90;24.60;;;;;;;14.71;66.04;101639.38;4987859;28;20042;-70
2021/10/19 01:48:22;;;;;;;32.90;25.08;;;;;;;14.77;66.56;101644.66;4985922;28;20041;-72
2021/10/19 01:50:48;;;;;;;38.63;25.52;;;;;;;14.79;66.32;101653.47;4987215;28;20501;-76
2021/10/19 01:53:14;;;;;;;36.38;27.08;;;;;;;14.78;66.74;101652.59;4988288;28;20401;-71
2021/10/19 01:55:41;;;;;;;33.58;25.17;;;;;;;14.75;67.35;101662.28;4989128;28;20565;-74
2021/10/19 01:58:08;;;;;;;31.02;22.83;;;;;;;14.70;67.36;101659.63;4986394;28;20121;-70
2021/10/19 02:00:35;;;;;;;36.00;26.40;;;;;;;14.72;66.98;101654.34;4987405;28;20088;-69
2021/10/19 02:03:08;;;;;;;36.28;26.40;;;;;;;14.57;66.79;101668.38;4988788;28;20065;-72
2021/10/19 02:05:35;;;;;;;29.48;25.48;;;;;;;14.48;67.05;101663.03;4988140;28;20026;-70
2021/10/19 02:08:03;;;;;;;38.72;26.35;;;;;;;14.37;67.46;101665.63;4988997;28;20162;-71
2021/10/19 02:10:32;;;;;;;34.83;24.50;;;;;;;14.27;68.03;101680.53;4985007;28;20030;-69
2021/10/19 02:12:58;;;;;;;30.58;24.90;;;;;;;14.42;67.44;101676.19;4988420;28;20034;-70
2021/10/19 02:15:27;;;;;;;39.17;27.30;;;;;;;14.39;67.45;101666.50;4988083;28;20118;-70
2021/10/19 02:17:55;;;;;;;39.72;28.55;;;;;;;14.36;67.34;101683.22;4983215;28;20034;-83
2021/10/19 02:20:22;;;;;;;39.83;27.67;;;;;;;14.13;67.97;101669.03;4985989;28;20042;-74
2021/10/19 02:22:48;;;;;;;39.15;29.92;;;;;;;14.23;68.05;101678.75;4987366;28;20414;-72
2021/10/19 02:25:14;;;;;;;33.05;27.00;;;;;;;14.12;68.34;101680.47;4986861;28;20033;-76
2021/10/19 02:27:39;;;;;;;31.98;26.48;;;;;;;14.37;67.41;101684.09;4989218;28;20409;-73
2021/10/19 02:30:07;;;;;;;37.85;26.10;;;;;;;14.53;67.23;101683.28;4986540;28;20049;-69
2021/10/19 02:32:34;;;;;;;39.30;27.58;;;;;;;14.58;66.96;101693.91;4989252;28;20752;-69
2021/10/19 02:34:59;;;;;;;30.90;25.13;;;;;;;14.45;66.96;101674.47;4988606;28;20038;-69
2021/10/19 02:37:26;;;;;;;36.45;25.90;;;;;;;14.45;66.25;101682.41;4983057;28;20042;-71
2021/10/19 02:39:51;;;;;;;33.25;24.88;;;;;;;14.30;67.12;101700.78;4986305;28;20032;-70
2021/10/19 02:42:17;;;;;;;35.80;26.52;;;;;;;14.11;67.61;101682.22;4987576;28;20464;-71
2021/10/19 02:44:42;;;;;;;30.45;23.50;;;;;;;14.30;66.70;101690.22;4985005;28;20042;-70
2021/10/19 02:47:08;;;;;;;29.52;23.63;;;;;;;14.52;65.80;101688.59;4986195;28;20088;-70
2021/10/19 02:49:33;;;;;;;37.13;26.10;;;;;;;14.53;67.04;101685.06;5021400;28;20485;-71
2021/10/19 02:51:59;;;;;;;34.83;24.23;;;;;;;14.53;67.09;101690.34;4984109;28;20383;-73
2021/10/19 02:54:24;;;;;;;32.00;22.52;;;;;;;14.48;67.50;101700.00;4988380;28;20066;-69
2021/10/19 02:56:50;;;;;;;34.88;26.63;;;;;;;14.57;68.22;101705.38;4985932;28;20442;-70
2021/10/19 02:59:15;;;;;;;35.47;24.50;;;;;;;14.45;67.43;101706.16;4980952;28;20179;-70
2021/10/19 03:01:41;;;;;;;31.58;24.00;;;;;;;14.43;65.93;101692.06;4989911;28;20486;-72
2021/10/19 03:04:06;;;;;;;36.83;25.52;;;;;;;14.44;66.60;101708.78;4988685;28;20137;-70
2021/10/19 03:06:32;;;;;;;40.40;25.33;;;;;;;14.47;65.98;101696.50;4987249;28;20113;-79
2021/10/19 03:08:57;;;;;;;36.13;25.98;;;;;;;14.61;65.73;101708.88;4987403;28;20085;-69
2021/10/19 03:11:24;;;;;;;32.83;25.20;;;;;;;14.61;65.30;101712.44;4988083;28;20030;-72
2021/10/19 03:13:50;;;;;;;33.08;23.73;;;;;;;14.52;64.42;101704.44;4983442;28;20405;-69
2021/10/19 03:16:16;;;;;;;32.05;24.35;;;;;;;14.47;64.76;101714.06;4986679;28;20153;-69
2021/10/19 03:18:42;;;;;;;31.83;23.63;;;;;;;14.38;64.65;101708.78;4979514;28;20050;-70
2021/10/19 03:21:08;;;;;;;30.65;22.52;;;;;;;14.31;64.04;101723.69;4982580;28;20031;-72
2021/10/19 03:23:33;;;;;;;28.80;22.23;;;;;;;14.50;64.88;101719.41;4986417;28;20045;-71
2021/10/19 03:25:59;;;;;;;42.00;25.83;;;;;;;14.42;66.85;101729.03;4986781;28;20086;-73
2021/10/19 03:28:24;;;;;;;37.40;24.95;;;;;;;14.44;67.15;101725.50;4983180;28;20533;-70
2021/10/19 03:30:50;;;;;;;32.85;23.40;;;;;;;14.46;67.26;101722.88;4986699;28;20425;-71
2021/10/19 03:33:15;;;;;;;28.52;23.23;;;;;;;14.34;67.35;101714.03;4987290;28;20042;-69
2021/10/19 03:35:41;;;;;;;34.70;24.45;;;;;;;14.34;67.35;101739.56;4992506;28;20111;-72
2021/10/19 03:38:06;;;;;;;30.52;22.98;;;;;;;14.39;67.55;101742.22;4987253;28;20479;-70
2021/10/19 03:40:32;;;;;;;37.40;25.33;;;;;;;14.29;67.88;101736.88;4982757;28;20377;-72
2021/10/19 03:42:57;;;;;;;29.42;23.48;;;;;;;14.24;68.15;101729.81;4987996;28;20478;-71
2021/10/19 03:45:23;;;;;;;43.72;23.67;;;;;;;14.25;67.80;101743.00;4987779;28;20034;-74
2021/10/19 03:47:48;;;;;;;31.88;24.98;;;;;;;14.14;67.98;101729.75;4987994;28;20038;-70
2021/10/19 03:50:14;;;;;;;36.42;22.38;;;;;;;14.32;67.20;101747.44;4986595;28;20038;-69
2021/10/19 03:52:40;;;;;;;28.77;23.10;;;;;;;14.30;66.57;101745.69;4986063;28;20492;-75
2021/10/19 03:55:06;;;;;;;32.72;24.30;;;;;;;14.40;67.32;101741.31;4987552;28;20023;-78
2021/10/19 03:57:32;;;;;;;28.85;21.05;;;;;;;14.40;67.98;101746.59;4986611;28;20053;-70
2021/10/19 03:59:58;;;;;;;36.85;26.55;;;;;;;14.38;67.64;101737.81;4989850;28;20050;-71
2021/10/19 04:02:23;;;;;;;33.30;23.98;;;;;;;14.31;67.64;101744.81;5003885;28;20284;-72
2021/10/19 04:04:49;;;;;;;29.17;22.95;;;;;;;14.31;67.46;101750.09;4985797;28;20030;-73
2021/10/19 04:07:14;;;;;;;36.45;26.10;;;;;;;14.25;67.64;101747.41;4986758;28;20030;-71
2021/10/19 04:09:41;;;;;;;32.05;25.05;;;;;;;14.33;67.75;101756.28;4989592;28;20394;-71
2021/10/19 04:12:09;;;;;;;33.42;25.10;;;;;;;14.28;68.11;101752.69;4990638;28;20038;-71
2021/10/19 04:14:35;;;;;;;32.95;25.63;;;;;;;14.30;67.88;101764.16;4988465;28;20045;-76
2021/10/19 04:17:01;;;;;;;35.58;26.05;;;;;;;14.26;67.49;101758.00;4992240;28;20485;-71
2021/10/19 04:19:27;;;;;;;30.05;22.85;;;;;;;14.25;67.18;101753.56;4984776;28;20050;-70
2021/10/19 04:21:53;;;;;;;36.63;24.60;;;;;;;14.32;67.50;101755.38;4990010;28;20034;-70
2021/10/19 04:24:18;;;;;;;32.25;21.85;;;;;;;14.12;67.54;101760.53;4989920;28;20445;-74
2021/10/19 04:26:44;;;;;;;37.28;29.10;;;;;;;14.06;64.31;101754.31;4987206;28;20038;-74
2021/10/19 04:29:11;;;;;;;36.85;25.50;;;;;;;14.15;64.35;101764.94;4986639;28;20113;-70
2021/10/19 04:31:39;;;;;;;33.75;24.05;;;;;;;14.38;63.90;101765.09;4991374;28;20034;-72
2021/10/19 04:34:05;;;;;;;32.75;24.25;;;;;;;14.41;66.12;101769.53;4987345;28;20121;-70
2021/10/19 04:36:31;;;;;;;32.10;23.35;;;;;;;14.42;66.44;101771.28;4990615;28;20497;-70
2021/10/19 04:38:57;;;;;;;29.90;24.02;;;;;;;14.50;66.57;101774.88;4985389;28;20031;-73
2021/10/19 04:41:23;;;;;;;30.95;23.75;;;;;;;14.46;66.74;101776.59;4986274;28;20493;-73
2021/10/19 04:43:48;;;;;;;41.88;25.55;;;;;;;14.33;67.02;101764.19;4989808;28;20048;-79
2021/10/19 04:46:14;;;;;;;36.90;27.45;;;;;;;14.39;66.96;101779.19;4986777;28;20485;-71
2021/10/19 04:48:40;;;;;;;37.47;27.90;;;;;;;14.40;66.95;101788.88;5020501;28;20084;-72
2021/10/19 04:51:05;;;;;;;31.25;24.88;;;;;;;14.48;67.18;101781.88;4989769;28;20042;-74
2021/10/19 04:53:31;;;;;;;34.22;23.65;;;;;;;14.48;66.71;101777.47;4988334;28;20026;-70
2021/10/19 04:55:57;;;;;;;33.42;23.80;;;;;;;14.45;66.49;101784.53;4989531;28;20044;-69
2021/10/19 04:58:24;;;;;;;37.88;24.23;;;;;;;14.33;66.63;101778.28;4989825;28;20034;-72
2021/10/19 05:00:50;;;;;;;31.20;23.85;;;;;;;14.38;66.62;101782.72;4987906;28;20030;-70
2021/10/19 05:03:17;;;;;;;31.85;24.08;;;;;;;14.42;66.55;101806.50;5003152;28;20478;-77
2021/10/19 05:05:43;;;;;;;29.40;23.92;;;;;;;14.39;66.11;101803.84;4992758;28;20039;-70
2021/10/19 05:08:09;;;;;;;27.95;23.73;;;;;;;14.42;66.22;101790.66;4987542;28;20038;-73
2021/10/19 05:10:35;;;;;;;27.88;23.38;;;;;;;14.41;66.65;101790.66;4988021;28;20049;-73
2021/10/19 05:13:00;;;;;;;28.02;22.42;;;;;;;14.46;65.38;101796.84;4988655;28;20474;-70
2021/10/19 05:15:26;;;;;;;32.42;23.67;;;;;;;14.47;64.89;101798.59;4987100;28;20050;-70
2021/10/19 05:17:53;;;;;;;31.60;21.65;;;;;;;14.41;61.41;101814.41;4986575;28;20034;-83
2021/10/19 05:20:18;;;;;;;20.98;16.50;;;;;;;14.30;58.97;101822.25;5018805;28;20034;-78
2021/10/19 05:22:44;;;;;;;22.70;18.05;;;;;;;13.68;61.10;101821.72;4989555;28;20046;-73
2021/10/19 05:25:11;;;;;;;19.80;16.98;;;;;;;14.19;61.29;101827.47;4987774;28;20030;-69
2021/10/19 05:27:37;;;;;;;25.95;18.63;;;;;;;13.73;59.16;101832.31;4989247;28;20478;-70
2021/10/19 05:30:04;;;;;;;22.55;17.58;;;;;;;13.90;58.98;101832.47;4986886;28;20045;-73
2021/10/19 05:32:29;;;;;;;20.73;16.70;;;;;;;14.26;59.50;101833.69;4987881;28;20052;-74
2021/10/19 05:34:55;;;;;;;23.17;17.55;;;;;;;14.49;61.42;101833.81;4984656;28;20035;-74
2021/10/19 05:37:20;;;;;;;33.55;19.65;;;;;;;14.47;60.23;101825.91;4988000;28;20034;-77
2021/10/19 05:39:46;;;;;;;28.52;18.48;;;;;;;14.61;61.08;101841.88;4985475;28;20505;-69
2021/10/19 05:42:13;;;;;;;31.10;19.08;;;;;;;14.65;60.07;101846.28;4986137;28;20035;-70
2021/10/19 05:44:40;;;;;;;55.10;42.30;;;;;;;13.92;60.02;101855.38;4983537;28;20077;-69
2021/10/19 05:47:06;;;;;;;30.45;24.77;;;;;;;13.89;59.72;101843.91;5020134;28;20046;-72
2021/10/19 05:49:31;;;;;;;28.73;23.88;;;;;;;13.89;60.70;101857.13;4987119;28;20042;-71
2021/10/19 05:51:57;;;;;;;31.27;23.95;;;;;;;14.44;61.36;101861.97;4988062;28;20375;-75
2021/10/19 05:54:24;;;;;;;28.33;22.30;;;;;;;14.51;60.25;101862.00;4989598;28;20470;-74
2021/10/19 05:56:51;;;;;;;25.40;20.17;;;;;;;14.66;58.62;101861.28;4987432;28;20030;-72
2021/10/19 05:59:16;;;;;;;25.77;23.02;;;;;;;14.83;59.45;101873.72;4988241;28;20129;-70
2021/10/19 06:01:42;;;;;;;34.97;25.02;;;;;;;14.70;60.46;101878.03;4988627;28;20525;-76
2021/10/19 06:04:07;;;;;;;37.35;27.65;;;;;;;14.75;58.94;101878.97;4987304;28;20026;-77
2021/10/19 06:06:33;;;;;;;39.80;29.98;;;;;;;14.83;59.91;101873.72;4987719;28;20453;-76
2021/10/19 06:08:58;;;;;;;35.95;25.80;;;;;;;14.89;59.66;101887.84;4986510;28;20029;-74
2021/10/19 06:11:24;;;;;;;37.70;26.83;;;;;;;15.02;59.23;101874.72;4987796;28;20066;-75
2021/10/19 06:13:49;;;;;;;45.65;28.13;;;;;;;15.06;59.18;101876.50;4989014;28;20034;-74
2021/10/19 06:16:15;;;;;;;35.50;27.73;;;;;;;15.24;60.18;101892.44;4983967;28;20034;-73
2021/10/19 06:18:40;;;;;;;32.65;25.45;;;;;;;15.32;58.00;101884.53;5013692;28;20596;-74
2021/10/19 06:21:06;;;;;;;37.22;25.88;;;;;;;15.10;58.37;101899.41;4985692;28;20398;-74
2021/10/19 06:23:31;;;;;;;32.88;24.60;;;;;;;14.92;59.05;101901.09;4986666;28;20108;-75
2021/10/19 06:25:57;;;;;;;32.25;26.52;;;;;;;14.15;60.18;101896.94;4986369;28;20501;-75
2021/10/19 06:28:23;;;;;;;46.10;29.67;;;;;;;14.08;60.66;101895.13;5018003;28;20042;-76
2021/10/19 06:30:48;;;;;;;42.55;28.17;;;;;;;14.04;60.31;101901.22;4987222;28;20414;-74
2021/10/19 06:33:14;;;;;;;32.60;25.92;;;;;;;13.72;60.96;101893.88;4989055;28;20921;-75
2021/10/19 06:35:42;;;;;;;33.30;26.05;;;;;;;14.35;60.48;101905.03;4989792;28;20057;-75
2021/10/19 06:38:08;;;;;;;29.35;23.05;;;;;;;14.18;60.77;101902.25;4987684;28;20073;-75
2021/10/19 06:40:34;;;;;;;27.65;22.20;;;;;;;14.51;59.44;101913.97;4986740;28;20065;-73
2021/10/19 06:43:00;;;;;;;27.45;20.45;;;;;;;14.65;57.82;101907.06;4986247;28;20494;-75
2021/10/19 06:45:25;;;;;;;35.67;23.05;;;;;;;14.77;58.21;101907.16;4984962;28;20456;-75
2021/10/19 06:47:51;;;;;;;35.58;25.42;;;;;;;14.62;60.01;101920.25;4970762;28;20039;-76
2021/10/19 06:50:17;;;;;;;53.53;23.75;;;;;;;15.05;58.65;101914.38;4985928;28;20553;-74
2021/10/19 06:52:42;;;;;;;30.00;21.88;;;;;;;15.40;57.81;101923.38;4983927;28;20073;-75
2021/10/19 06:55:09;;;;;;;41.03;22.88;;;;;;;15.55;55.58;101911.09;4984399;28;20358;-75
2021/10/19 06:57:42;;;;;;;39.45;22.90;;;;;;;15.72;55.04;101929.69;4981259;28;20042;-76
2021/10/19 07:00:09;;;;;;;;;;;;;;;15.89;55.02;101930.59;4987160;28;20035;-73
2021/10/19 07:02:34;;;;;;;38.17;19.52;;;;;;;15.94;55.18;101942.09;4990502;28;20392;-76
2021/10/19 07:05:00;;;;;;;28.90;19.88;;;;;;;15.90;53.03;101942.13;4985334;28;20049;-74
2021/10/19 07:07:25;;;;;;;27.13;20.33;;;;;;;15.43;51.08;101930.44;4986702;28;20038;-75
2021/10/19 07:09:51;;;;;;;27.00;18.83;;;;;;;15.77;53.44;101936.75;4985999;28;20034;-74
2021/10/19 07:12:16;;;;;;;24.85;18.52;;;;;;;16.03;51.72;101938.59;4986291;28;20068;-76
2021/10/19 07:14:43;;;;;;;32.78;17.77;;;;;;;16.19;51.27;101940.38;4986649;28;20038;-72
2021/10/19 07:17:09;;;;;;;26.58;19.73;;;;;;;16.30;52.35;101942.19;4985995;28;20037;-77
2021/10/19 07:19:38;;;;;;;27.55;21.70;;;;;;;16.42;52.68;101942.19;4981617;28;20130;-76
2021/10/19 07:22:04;;;;;;;26.92;19.75;;;;;;;16.54;52.26;101952.78;4986163;28;20088;-75
2021/10/19 07:24:30;;;;;;;26.63;20.88;;;;;;;16.58;50.67;101943.94;4988533;28;20038;-76
2021/10/19 07:26:55;;;;;;;32.65;18.17;;;;;;;15.79;50.08;101953.53;4985356;28;20034;-74
2021/10/19 07:29:20;;;;;;;36.97;22.70;;;;;;;15.61;51.94;101945.50;4986848;28;20095;-76
2021/10/19 07:31:46;;;;;;;31.05;19.08;;;;;;;16.00;52.25;101950.06;4986829;28;20618;-79
2021/10/19 07:34:12;;;;;;;27.38;19.25;;;;;;;15.79;51.66;101948.25;4986714;28;20030;-77
2021/10/19 07:36:38;;;;;;;27.52;21.40;;;;;;;16.11;52.52;101934.22;4987373;28;20130;-78
2021/10/19 07:39:03;;;;;;;26.02;20.88;;;;;;;16.49;51.43;101943.06;4985671;28;20104;-77
2021/10/19 07:41:29;;;;;;;30.08;20.45;;;;;;;16.56;51.96;101951.00;4985982;28;20034;-77
2021/10/19 07:43:54;;;;;;;28.60;20.77;;;;;;;16.63;51.70;101946.59;4984188;28;20036;-78
2021/10/19 07:46:20;;;;;;;37.17;20.98;;;;;;;16.79;51.13;101950.16;4987179;28;20034;-78
2021/10/19 07:48:45;;;;;;;25.50;18.00;;;;;;;16.17;50.71;101950.09;4988959;28;20030;-78
2021/10/19 07:51:11;;;;;;;33.00;19.65;;;;;;;16.07;51.53;101950.97;4983632;28;20042;-71
2021/10/19 07:53:36;;;;;;;23.17;16.65;;;;;;;15.81;52.25;101956.19;4982587;28;20034;-72
2021/10/19 07:56:02;;;;;;;30.48;17.80;;;;;;;15.87;51.96;101961.50;4985648;28;20030;-69
2021/10/19 07:58:28;;;;;;;22.05;16.83;;;;;;;15.32;50.48;101966.53;4986955;28;20066;-71
2021/10/19 08:00:54;;;;;;;24.08;15.68;;;;;;;16.01;50.03;101958.88;4987918;28;20041;-77
2021/10/19 08:03:20;;;;;;;28.58;17.02;;;;;;;16.29;49.89;101959.81;4988343;28;20061;-77
2021/10/19 08:05:46;;;;;;;24.30;17.83;;;;;;;16.63;49.83;101963.38;4986046;28;20046;-71
2021/10/19 08:08:13;;;;;;;27.40;19.95;;;;;;;16.58;49.50;101958.97;4986308;28;20084;-75
2021/10/19 08:10:42;;;;;;;25.45;18.35;;;;;;;16.60;49.36;101959.81;4987666;28;20370;-72
2021/10/19 08:13:09;;;;;;;30.95;17.92;;;;;;;16.90;49.28;101951.00;4988094;28;20065;-71
2021/10/19 08:15:35;;;;;;;25.80;18.42;;;;;;;17.01;48.20;101956.31;4986973;28;20035;-70
2021/10/19 08:18:02;;;;;;;29.33;18.42;;;;;;;17.12;48.77;101956.31;4985103;28;20034;-70
2021/10/19 08:20:27;;;;;;;25.75;18.50;;;;;;;17.16;48.72;101948.31;4986245;28;20046;-69
2021/10/19 08:22:53;;;;;;;27.98;18.17;;;;;;;17.29;48.05;101959.78;4986576;28;20039;-73
2021/10/19 08:25:19;;;;;;;24.92;19.08;;;;;;;16.65;49.91;101964.25;4984879;28;20026;-71
2021/10/19 08:27:45;;;;;;;20.45;16.58;;;;;;;16.72;49.37;101957.19;4978395;28;20080;-71
2021/10/19 08:30:14;;;;;;;28.08;18.08;;;;;;;16.15;50.53;101949.19;4988160;28;20034;-80
2021/10/19 08:32:39;;;;;;;25.08;17.63;;;;;;;16.53;49.44;101955.41;4986945;28;20129;-76
2021/10/19 08:35:06;;;;;;;31.17;16.83;;;;;;;16.64;49.43;101949.22;4987488;28;20118;-70
2021/10/19 08:37:32;;;;;;;21.67;15.18;;;;;;;16.80;47.79;101955.44;4984660;28;20165;-70
2021/10/19 08:40:02;;;;;;;33.15;18.05;;;;;;;16.88;47.56;101945.72;5017150;28;20042;-70
2021/10/19 08:42:28;;;;;;;28.08;16.92;;;;;;;17.11;48.96;101958.03;4987290;28;20035;-73
2021/10/19 08:44:55;;;;;;;27.60;16.75;;;;;;;17.14;49.60;101949.19;4986153;28;20049;-70
2021/10/19 08:47:22;;;;;;;22.13;15.43;;;;;;;16.92;48.92;101937.75;4988076;28;20041;-71
2021/10/19 08:49:48;;;;;;;27.60;17.02;;;;;;;16.91;48.43;101950.13;4985264;28;20038;-70
2021/10/19 08:52:14;;;;;;;17.85;14.80;;;;;;;16.67;50.00;101958.97;4986261;28;20169;-71
2021/10/19 08:54:41;;;;;;;28.95;15.23;;;;;;;16.37;48.85;101958.06;4986958;28;20512;-74
2021/10/19 08:57:14;;;;;;;14.75;12.75;;;;;;;16.74;48.47;101958.09;4988630;28;20049;-69
2021/10/19 08:59:45;;;;;;;25.83;13.82;;;;;;;16.77;46.07;101952.78;4994809;28;20085;-77
2021/10/19 09:02:11;;;;;;;17.63;12.98;;;;;;;17.13;45.53;101945.66;4993998;28;20046;-70
2021/10/19 09:04:37;;;;;;;22.42;15.45;;;;;;;16.75;44.44;101941.28;4989513;28;20062;-70
2021/10/19 09:07:02;;;;;;;27.15;12.93;;;;;;;16.66;45.29;101946.59;4990271;28;20073;-69
2021/10/19 09:09:29;;;;;;;29.63;14.05;;;;;;;17.12;46.32;101945.69;4990213;28;20425;-70
2021/10/19 09:11:56;;;;;;;17.20;11.48;;;;;;;16.05;45.14;101952.72;4988062;28;20034;-70
2021/10/19 09:14:32;;;;;;;21.90;14.98;;;;;;;16.54;46.63;101943.94;4988001;28;20168;-73
2021/10/19 09:17:02;;;;;;;17.60;11.85;;;;;;;17.04;44.37;101948.34;4990575;28;20035;-72
2021/10/19 09:19:28;;;;;;;19.10;13.13;;;;;;;17.26;43.75;101946.53;4982507;28;20053;-74
2021/10/19 09:22:03;;;;;;;18.17;12.82;;;;;;;17.45;45.08;101945.56;4988735;28;20477;-75
2021/10/19 09:24:37;;;;;;;16.48;11.13;;;;;;;17.38;43.62;101943.81;4989476;28;20045;-70
2021/10/19 09:27:11;;;;;;;16.20;10.80;;;;;;;17.24;43.11;101959.78;4984822;28;21264;-71
2021/10/19 09:29:41;;;;;;;21.98;11.95;;;;;;;17.63;43.77;101962.28;4988878;28;20031;-72
2021/10/19 09:32:08;;;;;;;13.32;10.82;;;;;;;16.72;42.58;101965.16;4989336;28;20057;-71
2021/10/19 09:34:36;;;;;;;23.83;10.45;;;;;;;16.49;42.80;101967.78;4985716;28;20034;-77
2021/10/19 09:37:04;;;;;;;19.30;12.05;;;;;;;16.32;43.54;101961.59;4980652;28;20042;-78
2021/10/19 09:39:40;;;;;;;18.10;11.73;;;;;;;16.77;45.67;101952.78;5002975;28;20030;-75
2021/10/19 09:42:17;;;;;;;16.45;12.13;;;;;;;17.24;45.08;101953.59;4984716;28;20037;-74
2021/10/19 09:45:09;;;;;;;15.07;12.18;;;;;;;17.46;44.44;101947.31;4986256;28;20026;-74
2021/10/19 09:47:39;;;;;;;14.10;10.82;;;;;;;17.48;43.11;101952.63;4988252;28;20050;-74
2021/10/19 09:50:07;;;;;;;21.05;13.52;;;;;;;17.14;42.85;101950.09;4986984;28;20035;-73
2021/10/19 09:52:40;;;;;;;24.90;14.88;;;;;;;17.13;44.40;101948.31;5014217;28;20073;-73
2021/10/19 09:55:10;;;;;;;29.98;12.45;;;;;;;17.70;43.60;101954.31;4991852;28;20042;-72
2021/10/19 09:57:42;;;;;;;18.92;12.65;;;;;;;17.80;42.10;101943.66;4988035;28;20034;-73
2021/10/19 10:00:09;;;;;;;19.02;11.13;;;;;;;17.91;41.04;101942.72;4986699;28;20026;-75
2021/10/19 10:02:38;;;;;;;18.08;11.65;;;;;;;17.96;41.29;101941.81;4987419;28;20597;-74
2021/10/19 10:05:07;;;;;;;16.17;11.75;;;;;;;17.36;40.66;101940.28;4987185;28;20034;-73
2021/10/19 10:07:35;;;;;;;11.93;10.68;;;;;;;16.03;42.46;101931.53;4988769;28;20042;-74
2021/10/19 10:10:02;;;;;;;13.90;10.85;;;;;;;17.00;43.13;101922.72;4987654;28;20116;-75
2021/10/19 10:12:33;;;;;;;18.45;11.90;;;;;;;17.16;41.76;101921.81;4988918;28;20037;-74
2021/10/19 10:14:59;;;;;;;15.52;12.65;;;;;;;17.36;42.95;101915.53;4986714;28;20054;-73
2021/10/19 10:17:24;;;;;;;16.30;13.00;;;;;;;17.68;43.94;101924.22;4992435;28;20026;-72
2021/10/19 10:19:51;;;;;;;24.48;12.70;;;;;;;17.95;44.16;101919.69;4984955;28;20042;-73
2021/10/19 10:22:22;;;;;;;18.75;13.57;;;;;;;18.12;42.42;101924.88;4988247;28;20030;-73
2021/10/19 10:24:48;;;;;;;23.73;12.57;;;;;;;17.84;42.56;101921.50;4980632;28;20042;-73
2021/10/19 10:27:25;;;;;;;17.30;15.35;;;;;;;16.39;44.03;101918.34;4986847;28;20106;-71
2021/10/19 10:29:51;;;;;;;18.67;12.52;;;;;;;16.39;43.37;101911.28;4984130;28;20366;-73
2021/10/19 10:32:22;;;;;;;21.42;12.23;;;;;;;16.66;44.97;101920.97;4987042;28;20037;-73
2021/10/19 10:34:59;;;;;;;18.35;12.68;;;;;;;17.07;43.78;101909.44;4986388;28;20567;-76
2021/10/19 10:37:34;;;;;;;19.55;12.10;;;;;;;17.56;44.84;101911.03;4985427;28;20041;-75
2021/10/19 10:39:59;;;;;;;20.00;13.27;;;;;;;17.81;43.76;101911.78;4990175;28;20071;-75
2021/10/19 10:42:41;;;;;;;16.65;11.15;;;;;;;17.55;41.58;101919.00;4983596;28;20143;-74
2021/10/19 10:45:30;;;;;;;13.63;11.00;;;;;;;16.74;43.12;101910.38;4988680;28;20026;-75
2021/10/19 10:48:04;;;;;;;18.27;13.45;;;;;;;16.48;42.73;101912.13;4987245;28;20038;-74
2021/10/19 10:50:32;;;;;;;17.83;12.60;;;;;;;17.11;42.91;101902.34;4985991;28;20135;-80
2021/10/19 10:53:03;;;;;;;16.50;10.95;;;;;;;17.64;43.31;101903.03;4982229;28;20038;-76
2021/10/19 10:55:43;;;;;;;16.58;12.23;;;;;;;18.17;42.14;101893.88;4987832;28;20559;-73
2021/10/19 10:58:08;;;;;;;14.20;10.80;;;;;;;18.02;40.65;101902.81;4986042;28;20041;-73
2021/10/19 11:00:34;;;;;;;19.75;11.40;;;;;;;17.72;40.66;101903.84;4983230;28;20034;-74
2021/10/19 11:03:10;;;;;;;13.32;10.43;;;;;;;18.19;39.70;101904.47;4988742;28;20049;-74
2021/10/19 11:05:37;;;;;;;15.85;10.38;;;;;;;18.49;40.43;101885.59;4985239;28;20393;-78
2021/10/19 11:08:04;;;;;;;14.25;11.02;;;;;;;18.59;38.53;101897.06;4987092;28;20136;-77